sensor_id;sensor_type;location;lat;lon;timestamp;P1;durP1;ratioP1;P2;durP2;ratioP2
73898;SDS011;62234;50.892;12.724;2023-08-20T00:01:39;8.10;;;4.88;;
73898;SDS011;62234;50.892;12.724;2023-08-20T00:04:05;8.93;;;5.18;;
73898;SDS011;62234;50.892;12.724;2023-08-20T00:06:31;9.88;;;4.50;;
73898;SDS011;62234;50.892;12.724;2023-08-20T00:08:57;8.35;;;4.82;;
73898;SDS011;62234;50.892;12.724;2023-08-20T00:11:23;8.43;;;5.22;;
73898;SDS011;62234;50.892;12.724;2023-08-20T00:13:49;7.97;;;5.57;;
73898;SDS011;62234;50.892;12.724;2023-08-20T00:16:15;5.53;;;5.03;;
73898;SDS011;62234;50.892;12.724;2023-08-20T00:18:41;9.32;;;5.00;;
73898;SDS011;62234;50.892;12.724;2023-08-20T00:21:07;6.75;;;4.80;;
73898;SDS011;62234;50.892;12.724;2023-08-20T00:23:34;13.65;;;5.38;;
73898;SDS011;62234;50.892;12.724;2023-08-20T00:26:00;9.35;;;5.53;;
73898;SDS011;62234;50.892;12.724;2023-08-20T00:28:27;7.20;;;5.10;;
73898;SDS011;62234;50.892;12.724;2023-08-20T00:30:53;7.85;;;5.22;;
73898;SDS011;62234;50.892;12.724;2023-08-20T00:33:19;8.23;;;5.88;;
73898;SDS011;62234;50.892;12.724;2023-08-20T00:35:45;7.45;;;5.85;;
73898;SDS011;62234;50.892;12.724;2023-08-20T00:38:11;8.20;;;4.93;;
73898;SDS011;62234;50.892;12.724;2023-08-20T00:40:37;8.55;;;5.43;;
73898;SDS011;62234;50.892;12.724;2023-08-20T00:43:03;7.22;;;5.03;;
73898;SDS011;62234;50.892;12.724;2023-08-20T00:45:29;10.23;;;5.68;;
73898;SDS011;62234;50.892;12.724;2023-08-20T00:47:55;6.28;;;4.43;;
73898;SDS011;62234;50.892;12.724;2023-08-20T00:50:22;6.50;;;5.43;;
73898;SDS011;62234;50.892;12.724;2023-08-20T00:52:48;10.30;;;5.57;;
73898;SDS011;62234;50.892;12.724;2023-08-20T00:55:14;7.53;;;5.35;;
73898;SDS011;62234;50.892;12.724;2023-08-20T00:57:40;9.20;;;4.88;;
73898;SDS011;62234;50.892;12.724;2023-08-20T01:00:07;6.32;;;4.97;;
73898;SDS011;62234;50.892;12.724;2023-08-20T01:02:34;8.07;;;5.47;;
73898;SDS011;62234;50.892;12.724;2023-08-20T01:05:00;8.23;;;5.40;;
73898;SDS011;62234;50.892;12.724;2023-08-20T01:07:30;6.88;;;5.40;;
73898;SDS011;62234;50.892;12.724;2023-08-20T01:10:08;6.35;;;4.82;;
73898;SDS011;62234;50.892;12.724;2023-08-20T01:12:34;9.10;;;4.97;;
73898;SDS011;62234;50.892;12.724;2023-08-20T01:15:00;9.50;;;5.60;;
73898;SDS011;62234;50.892;12.724;2023-08-20T01:17:26;6.90;;;5.30;;
73898;SDS011;62234;50.892;12.724;2023-08-20T01:19:52;9.23;;;5.47;;
73898;SDS011;62234;50.892;12.724;2023-08-20T01:22:30;10.40;;;4.78;;
73898;SDS011;62234;50.892;12.724;2023-08-20T01:25:14;6.55;;;5.38;;
73898;SDS011;62234;50.892;12.724;2023-08-20T01:27:50;6.75;;;4.95;;
73898;SDS011;62234;50.892;12.724;2023-08-20T01:30:18;6.82;;;6.03;;
73898;SDS011;62234;50.892;12.724;2023-08-20T01:32:45;7.25;;;4.75;;
73898;SDS011;62234;50.892;12.724;2023-08-20T01:35:12;9.95;;;5.40;;
73898;SDS011;62234;50.892;12.724;2023-08-20T01:37:41;9.18;;;5.82;;
73898;SDS011;62234;50.892;12.724;2023-08-20T01:40:07;9.05;;;5.18;;
73898;SDS011;62234;50.892;12.724;2023-08-20T01:42:35;13.35;;;5.95;;
73898;SDS011;62234;50.892;12.724;2023-08-20T01:45:01;9.77;;;5.30;;
73898;SDS011;62234;50.892;12.724;2023-08-20T01:47:27;5.75;;;5.25;;
73898;SDS011;62234;50.892;12.724;2023-08-20T01:49:53;7.57;;;5.13;;
73898;SDS011;62234;50.892;12.724;2023-08-20T01:52:19;7.47;;;5.22;;
73898;SDS011;62234;50.892;12.724;2023-08-20T01:54:45;8.82;;;5.95;;
73898;SDS011;62234;50.892;12.724;2023-08-20T01:57:10;8.43;;;5.43;;
73898;SDS011;62234;50.892;12.724;2023-08-20T01:59:36;8.00;;;5.03;;
73898;SDS011;62234;50.892;12.724;2023-08-20T02:02:02;8.93;;;6.00;;
73898;SDS011;62234;50.892;12.724;2023-08-20T02:04:29;8.15;;;5.28;;
73898;SDS011;62234;50.892;12.724;2023-08-20T02:06:56;9.48;;;5.40;;
73898;SDS011;62234;50.892;12.724;2023-08-20T02:09:21;13.52;;;5.93;;
73898;SDS011;62234;50.892;12.724;2023-08-20T02:11:47;7.07;;;5.18;;
73898;SDS011;62234;50.892;12.724;2023-08-20T02:14:13;9.90;;;5.57;;
73898;SDS011;62234;50.892;12.724;2023-08-20T02:16:39;8.77;;;5.35;;
73898;SDS011;62234;50.892;12.724;2023-08-20T02:19:05;11.05;;;5.88;;
73898;SDS011;62234;50.892;12.724;2023-08-20T02:21:32;7.80;;;5.88;;
73898;SDS011;62234;50.892;12.724;2023-08-20T02:23:57;8.65;;;6.05;;
73898;SDS011;62234;50.892;12.724;2023-08-20T02:26:23;8.93;;;6.28;;
73898;SDS011;62234;50.892;12.724;2023-08-20T02:28:49;8.93;;;5.95;;
73898;SDS011;62234;50.892;12.724;2023-08-20T02:31:15;8.05;;;6.00;;
73898;SDS011;62234;50.892;12.724;2023-08-20T02:33:41;8.40;;;5.82;;
73898;SDS011;62234;50.892;12.724;2023-08-20T02:36:07;7.38;;;5.72;;
73898;SDS011;62234;50.892;12.724;2023-08-20T02:38:33;7.80;;;6.47;;
73898;SDS011;62234;50.892;12.724;2023-08-20T02:41:00;8.75;;;6.13;;
73898;SDS011;62234;50.892;12.724;2023-08-20T02:43:27;10.23;;;5.97;;
73898;SDS011;62234;50.892;12.724;2023-08-20T02:45:53;10.32;;;5.65;;
73898;SDS011;62234;50.892;12.724;2023-08-20T02:48:19;11.93;;;5.93;;
73898;SDS011;62234;50.892;12.724;2023-08-20T02:50:46;13.13;;;6.00;;
73898;SDS011;62234;50.892;12.724;2023-08-20T02:53:12;9.35;;;5.75;;
73898;SDS011;62234;50.892;12.724;2023-08-20T02:55:38;10.70;;;5.93;;
73898;SDS011;62234;50.892;12.724;2023-08-20T02:58:04;9.15;;;6.47;;
73898;SDS011;62234;50.892;12.724;2023-08-20T03:00:32;9.85;;;6.63;;
73898;SDS011;62234;50.892;12.724;2023-08-20T03:02:58;12.45;;;6.00;;
73898;SDS011;62234;50.892;12.724;2023-08-20T03:05:25;14.98;;;7.05;;
73898;SDS011;62234;50.892;12.724;2023-08-20T03:07:51;8.88;;;5.53;;
73898;SDS011;62234;50.892;12.724;2023-08-20T03:10:17;12.55;;;6.35;;
73898;SDS011;62234;50.892;12.724;2023-08-20T03:12:43;11.50;;;5.45;;
73898;SDS011;62234;50.892;12.724;2023-08-20T03:15:09;8.32;;;5.63;;
73898;SDS011;62234;50.892;12.724;2023-08-20T03:17:35;8.18;;;5.60;;
73898;SDS011;62234;50.892;12.724;2023-08-20T03:20:01;9.40;;;6.88;;
73898;SDS011;62234;50.892;12.724;2023-08-20T03:22:30;7.07;;;6.20;;
73898;SDS011;62234;50.892;12.724;2023-08-20T03:24:56;8.85;;;6.78;;
73898;SDS011;62234;50.892;12.724;2023-08-20T03:27:22;7.22;;;5.70;;
73898;SDS011;62234;50.892;12.724;2023-08-20T03:29:48;9.10;;;6.07;;
73898;SDS011;62234;50.892;12.724;2023-08-20T03:32:15;11.48;;;6.75;;
73898;SDS011;62234;50.892;12.724;2023-08-20T03:34:41;8.77;;;5.75;;
73898;SDS011;62234;50.892;12.724;2023-08-20T03:37:06;10.85;;;6.43;;
73898;SDS011;62234;50.892;12.724;2023-08-20T03:39:32;8.82;;;6.25;;
73898;SDS011;62234;50.892;12.724;2023-08-20T03:41:58;10.13;;;6.05;;
73898;SDS011;62234;50.892;12.724;2023-08-20T03:44:24;12.25;;;6.90;;
73898;SDS011;62234;50.892;12.724;2023-08-20T03:46:51;7.30;;;6.05;;
73898;SDS011;62234;50.892;12.724;2023-08-20T03:49:17;11.70;;;6.50;;
73898;SDS011;62234;50.892;12.724;2023-08-20T03:51:42;9.00;;;6.20;;
73898;SDS011;62234;50.892;12.724;2023-08-20T03:54:09;9.65;;;6.78;;
73898;SDS011;62234;50.892;12.724;2023-08-20T03:56:35;8.73;;;6.00;;
73898;SDS011;62234;50.892;12.724;2023-08-20T03:59:01;9.85;;;6.63;;
73898;SDS011;62234;50.892;12.724;2023-08-20T04:01:27;13.23;;;7.15;;
73898;SDS011;62234;50.892;12.724;2023-08-20T04:03:53;12.98;;;8.77;;
73898;SDS011;62234;50.892;12.724;2023-08-20T04:06:19;8.80;;;6.85;;
73898;SDS011;62234;50.892;12.724;2023-08-20T04:08:45;9.23;;;6.63;;
73898;SDS011;62234;50.892;12.724;2023-08-20T04:11:11;9.40;;;5.63;;
73898;SDS011;62234;50.892;12.724;2023-08-20T04:13:37;12.57;;;6.68;;
73898;SDS011;62234;50.892;12.724;2023-08-20T04:16:04;9.98;;;7.32;;
73898;SDS011;62234;50.892;12.724;2023-08-20T04:18:30;11.20;;;7.75;;
73898;SDS011;62234;50.892;12.724;2023-08-20T04:20:56;8.10;;;7.28;;
73898;SDS011;62234;50.892;12.724;2023-08-20T04:23:22;8.50;;;6.93;;
73898;SDS011;62234;50.892;12.724;2023-08-20T04:25:48;10.18;;;7.10;;
73898;SDS011;62234;50.892;12.724;2023-08-20T04:28:14;12.32;;;8.43;;
73898;SDS011;62234;50.892;12.724;2023-08-20T04:30:40;10.13;;;7.78;;
73898;SDS011;62234;50.892;12.724;2023-08-20T04:33:06;10.10;;;7.20;;
73898;SDS011;62234;50.892;12.724;2023-08-20T04:35:33;9.32;;;7.57;;
73898;SDS011;62234;50.892;12.724;2023-08-20T04:37:59;12.05;;;8.45;;
73898;SDS011;62234;50.892;12.724;2023-08-20T04:40:25;8.95;;;7.53;;
73898;SDS011;62234;50.892;12.724;2023-08-20T04:42:51;12.35;;;9.27;;
73898;SDS011;62234;50.892;12.724;2023-08-20T04:45:17;11.93;;;8.35;;
73898;SDS011;62234;50.892;12.724;2023-08-20T04:47:44;9.50;;;7.93;;
73898;SDS011;62234;50.892;12.724;2023-08-20T04:50:10;11.80;;;9.35;;
73898;SDS011;62234;50.892;12.724;2023-08-20T04:52:36;13.73;;;10.57;;
73898;SDS011;62234;50.892;12.724;2023-08-20T04:55:03;11.73;;;9.77;;
73898;SDS011;62234;50.892;12.724;2023-08-20T04:57:29;15.82;;;9.57;;
73898;SDS011;62234;50.892;12.724;2023-08-20T04:59:55;16.50;;;10.43;;
73898;SDS011;62234;50.892;12.724;2023-08-20T05:02:21;21.02;;;11.70;;
73898;SDS011;62234;50.892;12.724;2023-08-20T05:04:47;12.68;;;9.70;;
73898;SDS011;62234;50.892;12.724;2023-08-20T05:07:12;14.85;;;10.48;;
73898;SDS011;62234;50.892;12.724;2023-08-20T05:09:39;17.02;;;10.30;;
73898;SDS011;62234;50.892;12.724;2023-08-20T05:12:05;14.65;;;10.05;;
73898;SDS011;62234;50.892;12.724;2023-08-20T05:14:31;16.63;;;10.98;;
73898;SDS011;62234;50.892;12.724;2023-08-20T05:16:57;11.93;;;10.20;;
73898;SDS011;62234;50.892;12.724;2023-08-20T05:19:23;23.30;;;10.40;;
73898;SDS011;62234;50.892;12.724;2023-08-20T05:21:49;18.08;;;11.50;;
73898;SDS011;62234;50.892;12.724;2023-08-20T05:24:15;15.77;;;10.40;;
73898;SDS011;62234;50.892;12.724;2023-08-20T05:26:41;15.80;;;9.25;;
73898;SDS011;62234;50.892;12.724;2023-08-20T05:29:06;14.73;;;9.55;;
73898;SDS011;62234;50.892;12.724;2023-08-20T05:31:33;15.98;;;10.65;;
73898;SDS011;62234;50.892;12.724;2023-08-20T05:33:59;18.77;;;12.02;;
73898;SDS011;62234;50.892;12.724;2023-08-20T05:36:25;20.50;;;12.60;;
73898;SDS011;62234;50.892;12.724;2023-08-20T05:38:51;17.45;;;12.65;;
73898;SDS011;62234;50.892;12.724;2023-08-20T05:41:17;18.52;;;13.25;;
73898;SDS011;62234;50.892;12.724;2023-08-20T05:43:43;14.68;;;12.90;;
73898;SDS011;62234;50.892;12.724;2023-08-20T05:46:09;15.20;;;11.77;;
73898;SDS011;62234;50.892;12.724;2023-08-20T05:48:35;17.08;;;12.18;;
73898;SDS011;62234;50.892;12.724;2023-08-20T05:51:00;20.77;;;12.05;;
73898;SDS011;62234;50.892;12.724;2023-08-20T05:53:26;17.38;;;11.57;;
73898;SDS011;62234;50.892;12.724;2023-08-20T05:55:52;15.90;;;11.65;;
73898;SDS011;62234;50.892;12.724;2023-08-20T05:58:18;18.00;;;11.90;;
73898;SDS011;62234;50.892;12.724;2023-08-20T06:00:44;15.95;;;12.90;;
73898;SDS011;62234;50.892;12.724;2023-08-20T06:03:10;17.30;;;11.65;;
73898;SDS011;62234;50.892;12.724;2023-08-20T06:05:36;16.55;;;10.80;;
73898;SDS011;62234;50.892;12.724;2023-08-20T06:08:02;17.50;;;11.38;;
73898;SDS011;62234;50.892;12.724;2023-08-20T06:10:28;19.30;;;13.00;;
73898;SDS011;62234;50.892;12.724;2023-08-20T06:12:54;19.63;;;12.05;;
73898;SDS011;62234;50.892;12.724;2023-08-20T06:15:21;16.45;;;11.20;;
73898;SDS011;62234;50.892;12.724;2023-08-20T06:17:47;15.82;;;10.88;;
73898;SDS011;62234;50.892;12.724;2023-08-20T06:20:13;16.45;;;11.68;;
73898;SDS011;62234;50.892;12.724;2023-08-20T06:22:39;15.60;;;10.65;;
73898;SDS011;62234;50.892;12.724;2023-08-20T06:25:05;16.02;;;12.40;;
73898;SDS011;62234;50.892;12.724;2023-08-20T06:27:32;18.45;;;12.55;;
73898;SDS011;62234;50.892;12.724;2023-08-20T06:29:57;18.90;;;11.95;;
73898;SDS011;62234;50.892;12.724;2023-08-20T06:32:24;18.58;;;12.68;;
73898;SDS011;62234;50.892;12.724;2023-08-20T06:34:50;17.52;;;10.95;;
73898;SDS011;62234;50.892;12.724;2023-08-20T06:37:16;17.33;;;11.98;;
73898;SDS011;62234;50.892;12.724;2023-08-20T06:39:42;16.20;;;11.65;;
73898;SDS011;62234;50.892;12.724;2023-08-20T06:42:08;15.30;;;11.38;;
73898;SDS011;62234;50.892;12.724;2023-08-20T06:44:34;15.18;;;11.18;;
73898;SDS011;62234;50.892;12.724;2023-08-20T06:47:00;13.88;;;11.27;;
73898;SDS011;62234;50.892;12.724;2023-08-20T06:49:26;15.43;;;11.75;;
73898;SDS011;62234;50.892;12.724;2023-08-20T06:51:52;19.33;;;14.02;;
73898;SDS011;62234;50.892;12.724;2023-08-20T06:54:18;16.70;;;11.65;;
73898;SDS011;62234;50.892;12.724;2023-08-20T06:56:44;13.45;;;11.90;;
73898;SDS011;62234;50.892;12.724;2023-08-20T06:59:10;15.18;;;12.73;;
73898;SDS011;62234;50.892;12.724;2023-08-20T07:01:36;16.27;;;13.23;;
73898;SDS011;62234;50.892;12.724;2023-08-20T07:04:02;18.63;;;13.05;;
73898;SDS011;62234;50.892;12.724;2023-08-20T07:06:28;16.77;;;12.95;;
73898;SDS011;62234;50.892;12.724;2023-08-20T07:08:54;14.70;;;13.07;;
73898;SDS011;62234;50.892;12.724;2023-08-20T07:11:20;15.93;;;12.85;;
73898;SDS011;62234;50.892;12.724;2023-08-20T07:13:46;20.00;;;13.90;;
73898;SDS011;62234;50.892;12.724;2023-08-20T07:16:12;16.42;;;13.43;;
73898;SDS011;62234;50.892;12.724;2023-08-20T07:18:38;15.80;;;13.13;;
73898;SDS011;62234;50.892;12.724;2023-08-20T07:21:04;18.08;;;13.23;;
73898;SDS011;62234;50.892;12.724;2023-08-20T07:23:30;16.38;;;13.00;;
73898;SDS011;62234;50.892;12.724;2023-08-20T07:26:09;17.65;;;13.20;;
73898;SDS011;62234;50.892;12.724;2023-08-20T07:28:37;16.20;;;13.43;;
73898;SDS011;62234;50.892;12.724;2023-08-20T07:31:21;17.92;;;12.88;;
73898;SDS011;62234;50.892;12.724;2023-08-20T07:33:47;16.63;;;11.85;;
73898;SDS011;62234;50.892;12.724;2023-08-20T07:36:14;16.58;;;12.38;;
73898;SDS011;62234;50.892;12.724;2023-08-20T07:38:40;13.77;;;12.02;;
73898;SDS011;62234;50.892;12.724;2023-08-20T07:41:08;16.55;;;11.38;;
73898;SDS011;62234;50.892;12.724;2023-08-20T07:43:34;12.52;;;10.65;;
73898;SDS011;62234;50.892;12.724;2023-08-20T07:46:00;11.35;;;10.25;;
73898;SDS011;62234;50.892;12.724;2023-08-20T07:48:26;13.70;;;10.98;;
73898;SDS011;62234;50.892;12.724;2023-08-20T07:50:52;16.80;;;11.13;;
73898;SDS011;62234;50.892;12.724;2023-08-20T07:53:18;13.68;;;11.68;;
73898;SDS011;62234;50.892;12.724;2023-08-20T07:55:44;13.20;;;9.90;;
73898;SDS011;62234;50.892;12.724;2023-08-20T07:58:10;14.02;;;11.18;;
73898;SDS011;62234;50.892;12.724;2023-08-20T08:00:36;13.90;;;11.48;;
73898;SDS011;62234;50.892;12.724;2023-08-20T08:03:01;16.17;;;12.70;;
73898;SDS011;62234;50.892;12.724;2023-08-20T08:05:28;17.55;;;12.85;;
73898;SDS011;62234;50.892;12.724;2023-08-20T08:07:54;14.15;;;12.23;;
73898;SDS011;62234;50.892;12.724;2023-08-20T08:10:20;18.80;;;11.40;;
73898;SDS011;62234;50.892;12.724;2023-08-20T08:12:46;13.27;;;11.77;;
73898;SDS011;62234;50.892;12.724;2023-08-20T08:15:12;13.57;;;11.45;;
73898;SDS011;62234;50.892;12.724;2023-08-20T08:17:38;19.65;;;11.05;;
73898;SDS011;62234;50.892;12.724;2023-08-20T08:20:04;14.23;;;11.20;;
73898;SDS011;62234;50.892;12.724;2023-08-20T08:22:30;14.45;;;11.57;;
73898;SDS011;62234;50.892;12.724;2023-08-20T08:24:56;14.52;;;10.75;;
73898;SDS011;62234;50.892;12.724;2023-08-20T08:27:22;12.88;;;11.02;;
73898;SDS011;62234;50.892;12.724;2023-08-20T08:29:48;12.52;;;10.02;;
73898;SDS011;62234;50.892;12.724;2023-08-20T08:32:14;11.43;;;10.18;;
73898;SDS011;62234;50.892;12.724;2023-08-20T08:34:40;13.45;;;10.25;;
73898;SDS011;62234;50.892;12.724;2023-08-20T08:37:05;13.65;;;9.65;;
73898;SDS011;62234;50.892;12.724;2023-08-20T08:39:32;10.50;;;8.93;;
73898;SDS011;62234;50.892;12.724;2023-08-20T08:42:02;11.30;;;10.10;;
73898;SDS011;62234;50.892;12.724;2023-08-20T08:44:32;11.30;;;10.10;;
73898;SDS011;62234;50.892;12.724;2023-08-20T08:46:58;12.30;;;9.38;;
73898;SDS011;62234;50.892;12.724;2023-08-20T08:49:24;12.57;;;10.75;;
73898;SDS011;62234;50.892;12.724;2023-08-20T08:51:51;13.98;;;11.48;;
73898;SDS011;62234;50.892;12.724;2023-08-20T08:54:18;13.75;;;10.75;;
73898;SDS011;62234;50.892;12.724;2023-08-20T08:56:45;16.23;;;12.15;;
73898;SDS011;62234;50.892;12.724;2023-08-20T08:59:11;14.02;;;10.73;;
73898;SDS011;62234;50.892;12.724;2023-08-20T09:01:38;13.15;;;10.23;;
73898;SDS011;62234;50.892;12.724;2023-08-20T09:04:05;12.70;;;10.57;;
73898;SDS011;62234;50.892;12.724;2023-08-20T09:06:46;11.80;;;10.60;;
73898;SDS011;62234;50.892;12.724;2023-08-20T09:09:12;13.35;;;9.75;;
73898;SDS011;62234;50.892;12.724;2023-08-20T09:11:38;11.27;;;9.05;;
73898;SDS011;62234;50.892;12.724;2023-08-20T09:14:04;10.95;;;9.00;;
73898;SDS011;62234;50.892;12.724;2023-08-20T09:16:30;10.05;;;9.05;;
73898;SDS011;62234;50.892;12.724;2023-08-20T09:18:58;13.75;;;10.43;;
73898;SDS011;62234;50.892;12.724;2023-08-20T09:21:28;11.18;;;9.73;;
73898;SDS011;62234;50.892;12.724;2023-08-20T09:23:54;14.85;;;10.57;;
73898;SDS011;62234;50.892;12.724;2023-08-20T09:26:20;11.23;;;9.50;;
73898;SDS011;62234;50.892;12.724;2023-08-20T09:28:46;13.30;;;9.57;;
73898;SDS011;62234;50.892;12.724;2023-08-20T09:31:13;12.00;;;9.35;;
73898;SDS011;62234;50.892;12.724;2023-08-20T09:33:48;13.85;;;9.82;;
73898;SDS011;62234;50.892;12.724;2023-08-20T09:36:15;10.77;;;9.68;;
73898;SDS011;62234;50.892;12.724;2023-08-20T09:38:41;12.38;;;9.68;;
73898;SDS011;62234;50.892;12.724;2023-08-20T09:41:07;11.82;;;9.85;;
73898;SDS011;62234;50.892;12.724;2023-08-20T09:43:34;13.10;;;9.38;;
73898;SDS011;62234;50.892;12.724;2023-08-20T09:46:02;10.77;;;8.13;;
73898;SDS011;62234;50.892;12.724;2023-08-20T09:48:31;10.30;;;8.48;;
73898;SDS011;62234;50.892;12.724;2023-08-20T09:50:59;9.02;;;8.13;;
73898;SDS011;62234;50.892;12.724;2023-08-20T09:53:26;9.80;;;8.80;;
73898;SDS011;62234;50.892;12.724;2023-08-20T09:55:53;11.30;;;8.65;;
73898;SDS011;62234;50.892;12.724;2023-08-20T09:58:20;10.18;;;7.90;;
73898;SDS011;62234;50.892;12.724;2023-08-20T10:00:51;8.18;;;7.03;;
73898;SDS011;62234;50.892;12.724;2023-08-20T10:03:20;8.23;;;7.47;;
73898;SDS011;62234;50.892;12.724;2023-08-20T10:05:48;8.60;;;7.72;;
73898;SDS011;62234;50.892;12.724;2023-08-20T10:08:14;8.90;;;7.80;;
73898;SDS011;62234;50.892;12.724;2023-08-20T10:10:40;10.05;;;8.32;;
73898;SDS011;62234;50.892;12.724;2023-08-20T10:13:07;9.32;;;7.82;;
73898;SDS011;62234;50.892;12.724;2023-08-20T10:15:33;9.55;;;6.65;;
73898;SDS011;62234;50.892;12.724;2023-08-20T10:18:01;8.88;;;7.28;;
73898;SDS011;62234;50.892;12.724;2023-08-20T10:20:28;10.70;;;8.30;;
73898;SDS011;62234;50.892;12.724;2023-08-20T10:22:57;9.75;;;7.80;;
73898;SDS011;62234;50.892;12.724;2023-08-20T10:25:25;8.40;;;7.57;;
73898;SDS011;62234;50.892;12.724;2023-08-20T10:27:52;8.80;;;7.38;;
73898;SDS011;62234;50.892;12.724;2023-08-20T10:30:19;8.70;;;7.63;;
73898;SDS011;62234;50.892;12.724;2023-08-20T10:32:50;12.30;;;7.78;;
73898;SDS011;62234;50.892;12.724;2023-08-20T10:35:17;9.05;;;8.00;;
73898;SDS011;62234;50.892;12.724;2023-08-20T10:38:00;8.35;;;7.55;;
73898;SDS011;62234;50.892;12.724;2023-08-20T10:40:46;8.60;;;7.72;;
73898;SDS011;62234;50.892;12.724;2023-08-20T10:43:23;9.10;;;7.68;;
73898;SDS011;62234;50.892;12.724;2023-08-20T10:46:07;9.10;;;8.20;;
73898;SDS011;62234;50.892;12.724;2023-08-20T10:48:36;9.30;;;8.30;;
73898;SDS011;62234;50.892;12.724;2023-08-20T10:51:08;9.90;;;8.90;;
73898;SDS011;62234;50.892;12.724;2023-08-20T10:53:34;9.40;;;8.43;;
73898;SDS011;62234;50.892;12.724;2023-08-20T10:56:07;9.35;;;7.60;;
73898;SDS011;62234;50.892;12.724;2023-08-20T10:58:33;9.02;;;7.57;;
73898;SDS011;62234;50.892;12.724;2023-08-20T11:03:44;9.07;;;7.45;;
73898;SDS011;62234;50.892;12.724;2023-08-20T11:06:10;9.82;;;7.13;;
73898;SDS011;62234;50.892;12.724;2023-08-20T11:08:37;8.95;;;8.05;;
73898;SDS011;62234;50.892;12.724;2023-08-20T11:11:04;8.07;;;7.25;;
73898;SDS011;62234;50.892;12.724;2023-08-20T11:13:34;9.93;;;7.22;;
73898;SDS011;62234;50.892;12.724;2023-08-20T11:16:01;8.80;;;7.63;;
73898;SDS011;62234;50.892;12.724;2023-08-20T11:18:27;8.63;;;7.53;;
73898;SDS011;62234;50.892;12.724;2023-08-20T11:20:53;7.70;;;6.90;;
73898;SDS011;62234;50.892;12.724;2023-08-20T11:23:20;8.38;;;7.40;;
73898;SDS011;62234;50.892;12.724;2023-08-20T11:25:46;8.63;;;7.45;;
73898;SDS011;62234;50.892;12.724;2023-08-20T11:28:12;8.05;;;7.20;;
73898;SDS011;62234;50.892;12.724;2023-08-20T11:30:38;7.50;;;6.72;;
73898;SDS011;62234;50.892;12.724;2023-08-20T11:33:04;7.07;;;6.32;;
73898;SDS011;62234;50.892;12.724;2023-08-20T11:35:31;7.45;;;6.68;;
73898;SDS011;62234;50.892;12.724;2023-08-20T11:37:58;8.15;;;7.15;;
73898;SDS011;62234;50.892;12.724;2023-08-20T11:40:24;8.00;;;7.20;;
73898;SDS011;62234;50.892;12.724;2023-08-20T11:42:49;7.28;;;6.57;;
73898;SDS011;62234;50.892;12.724;2023-08-20T11:45:16;6.68;;;6.18;;
73898;SDS011;62234;50.892;12.724;2023-08-20T11:47:42;7.65;;;6.95;;
73898;SDS011;62234;50.892;12.724;2023-08-20T11:50:08;8.15;;;6.80;;
73898;SDS011;62234;50.892;12.724;2023-08-20T11:52:37;7.38;;;6.78;;
73898;SDS011;62234;50.892;12.724;2023-08-20T11:55:07;8.35;;;6.95;;
73898;SDS011;62234;50.892;12.724;2023-08-20T11:57:34;7.25;;;6.55;;
73898;SDS011;62234;50.892;12.724;2023-08-20T12:00:03;7.32;;;6.60;;
73898;SDS011;62234;50.892;12.724;2023-08-20T12:02:29;6.85;;;6.20;;
73898;SDS011;62234;50.892;12.724;2023-08-20T12:04:56;7.85;;;6.78;;
73898;SDS011;62234;50.892;12.724;2023-08-20T12:07:26;7.28;;;6.57;;
73898;SDS011;62234;50.892;12.724;2023-08-20T12:09:55;8.10;;;7.30;;
73898;SDS011;62234;50.892;12.724;2023-08-20T12:14:47;7.78;;;7.07;;
73898;SDS011;62234;50.892;12.724;2023-08-20T12:17:17;7.18;;;6.45;;
73898;SDS011;62234;50.892;12.724;2023-08-20T12:19:43;7.72;;;6.93;;
73898;SDS011;62234;50.892;12.724;2023-08-20T12:22:09;7.78;;;6.65;;
73898;SDS011;62234;50.892;12.724;2023-08-20T12:24:35;9.77;;;6.68;;
73898;SDS011;62234;50.892;12.724;2023-08-20T12:27:01;8.13;;;7.25;;
73898;SDS011;62234;50.892;12.724;2023-08-20T12:29:28;7.65;;;6.90;;
73898;SDS011;62234;50.892;12.724;2023-08-20T12:31:54;7.60;;;6.70;;
73898;SDS011;62234;50.892;12.724;2023-08-20T12:34:20;8.02;;;7.32;;
73898;SDS011;62234;50.892;12.724;2023-08-20T12:36:50;7.32;;;6.63;;
73898;SDS011;62234;50.892;12.724;2023-08-20T12:39:16;7.35;;;6.53;;
73898;SDS011;62234;50.892;12.724;2023-08-20T12:41:43;7.95;;;7.18;;
73898;SDS011;62234;50.892;12.724;2023-08-20T12:44:09;7.28;;;6.55;;
73898;SDS011;62234;50.892;12.724;2023-08-20T12:46:35;8.57;;;7.72;;
73898;SDS011;62234;50.892;12.724;2023-08-20T12:49:01;7.05;;;6.28;;
73898;SDS011;62234;50.892;12.724;2023-08-20T12:51:27;7.53;;;6.82;;
73898;SDS011;62234;50.892;12.724;2023-08-20T12:53:53;7.60;;;6.90;;
73898;SDS011;62234;50.892;12.724;2023-08-20T12:56:19;7.82;;;7.03;;
73898;SDS011;62234;50.892;12.724;2023-08-20T12:58:45;6.53;;;6.00;;
73898;SDS011;62234;50.892;12.724;2023-08-20T13:01:11;7.45;;;6.72;;
73898;SDS011;62234;50.892;12.724;2023-08-20T13:03:37;7.10;;;6.50;;
73898;SDS011;62234;50.892;12.724;2023-08-20T13:06:03;7.70;;;6.75;;
73898;SDS011;62234;50.892;12.724;2023-08-20T13:08:29;7.65;;;6.93;;
73898;SDS011;62234;50.892;12.724;2023-08-20T13:10:56;13.30;;;9.00;;
73898;SDS011;62234;50.892;12.724;2023-08-20T13:13:23;8.40;;;7.60;;
73898;SDS011;62234;50.892;12.724;2023-08-20T13:15:52;7.75;;;7.05;;
73898;SDS011;62234;50.892;12.724;2023-08-20T13:18:19;7.07;;;6.57;;
73898;SDS011;62234;50.892;12.724;2023-08-20T13:20:49;12.57;;;11.27;;
73898;SDS011;62234;50.892;12.724;2023-08-20T13:23:15;8.75;;;7.13;;
73898;SDS011;62234;50.892;12.724;2023-08-20T13:25:41;9.50;;;8.75;;
73898;SDS011;62234;50.892;12.724;2023-08-20T13:28:08;10.57;;;8.02;;
73898;SDS011;62234;50.892;12.724;2023-08-20T13:30:34;7.32;;;6.35;;
73898;SDS011;62234;50.892;12.724;2023-08-20T13:33:00;10.43;;;6.25;;
73898;SDS011;62234;50.892;12.724;2023-08-20T13:35:26;7.70;;;6.55;;
73898;SDS011;62234;50.892;12.724;2023-08-20T13:37:52;7.03;;;6.38;;
73898;SDS011;62234;50.892;12.724;2023-08-20T13:40:18;8.50;;;6.22;;
73898;SDS011;62234;50.892;12.724;2023-08-20T13:42:44;14.63;;;12.90;;
73898;SDS011;62234;50.892;12.724;2023-08-20T13:45:10;23.40;;;20.58;;
73898;SDS011;62234;50.892;12.724;2023-08-20T13:47:36;11.40;;;9.48;;
73898;SDS011;62234;50.892;12.724;2023-08-20T13:50:02;14.43;;;12.98;;
73898;SDS011;62234;50.892;12.724;2023-08-20T13:52:29;12.63;;;11.32;;
73898;SDS011;62234;50.892;12.724;2023-08-20T13:54:55;7.68;;;6.97;;
73898;SDS011;62234;50.892;12.724;2023-08-20T13:57:21;7.07;;;6.47;;
73898;SDS011;62234;50.892;12.724;2023-08-20T13:59:47;9.98;;;9.18;;
73898;SDS011;62234;50.892;12.724;2023-08-20T14:02:13;10.25;;;9.35;;
73898;SDS011;62234;50.892;12.724;2023-08-20T14:04:39;7.25;;;5.70;;
73898;SDS011;62234;50.892;12.724;2023-08-20T14:07:05;6.68;;;6.18;;
73898;SDS011;62234;50.892;12.724;2023-08-20T14:09:31;12.52;;;11.25;;
73898;SDS011;62234;50.892;12.724;2023-08-20T14:11:59;12.18;;;10.80;;
73898;SDS011;62234;50.892;12.724;2023-08-20T14:14:25;7.80;;;7.03;;
73898;SDS011;62234;50.892;12.724;2023-08-20T14:16:52;6.93;;;6.32;;
73898;SDS011;62234;50.892;12.724;2023-08-20T14:19:17;7.60;;;6.65;;
73898;SDS011;62234;50.892;12.724;2023-08-20T14:21:43;7.63;;;6.78;;
73898;SDS011;62234;50.892;12.724;2023-08-20T14:24:09;12.60;;;10.02;;
73898;SDS011;62234;50.892;12.724;2023-08-20T14:26:35;8.85;;;6.20;;